createdAt,value
2023-02-06T00:01:03.469Z,103845.53
2023-02-06T00:03:52.668Z,103837.56
2023-02-06T00:06:43.914Z,103832.53
2023-02-06T00:09:33.327Z,103844.84
2023-02-06T00:12:22.593Z,103835.81
2023-02-06T00:15:11.883Z,103843.56
2023-02-06T00:18:01.149Z,103850.47
2023-02-06T00:20:50.408Z,103846.09
2023-02-06T00:23:41.318Z,103851.31
2023-02-06T00:26:31.666Z,103853.44
2023-02-06T00:29:20.857Z,103853.97
2023-02-06T00:32:10.032Z,103854.06
2023-02-06T00:34:59.202Z,103841.16
2023-02-06T00:37:48.325Z,103837.50
2023-02-06T00:40:39.017Z,103843.19
2023-02-06T00:43:28.395Z,103833.63
2023-02-06T00:46:19.021Z,103835.00
2023-02-06T00:49:08.219Z,103819.16
2023-02-06T00:51:57.450Z,103820.63
2023-02-06T00:54:46.734Z,103813.81
2023-02-06T00:57:37.390Z,103807.97
2023-02-06T01:00:26.781Z,103802.13
2023-02-06T01:03:16.071Z,103799.09
2023-02-06T01:06:05.722Z,103793.25
2023-02-06T01:08:55.100Z,103792.06
2023-02-06T01:11:44.414Z,103801.75
2023-02-06T01:14:35.011Z,103795.28
2023-02-06T01:17:24.195Z,103794.88
2023-02-06T01:20:15.839Z,103784.88
2023-02-06T01:23:05.284Z,103799.97
2023-02-06T01:25:54.569Z,103787.44
2023-02-06T01:28:47.959Z,103784.72
2023-02-06T01:31:38.686Z,103780.19
2023-02-06T01:34:28.028Z,103787.06
2023-02-06T01:37:17.501Z,103771.00
2023-02-06T01:40:09.380Z,103771.25
2023-02-06T01:42:58.619Z,103789.25
2023-02-06T01:45:48.278Z,103773.38
2023-02-06T01:48:42.779Z,103769.44
2023-02-06T01:51:32.788Z,103768.00
2023-02-06T01:54:22.424Z,103769.88
2023-02-06T01:57:13.798Z,103772.88
2023-02-06T02:00:08.816Z,103769.31
2023-02-06T02:03:02.583Z,103773.53
2023-02-06T02:05:58.881Z,103768.72
2023-02-06T02:08:54.661Z,103770.41
2023-02-06T02:11:43.939Z,103778.34
2023-02-06T02:14:33.222Z,103772.69
2023-02-06T02:17:37.913Z,103776.06
2023-02-06T02:21:16.079Z,103772.09
2023-02-06T02:24:12.213Z,103772.09
2023-02-06T02:27:45.787Z,103760.81
2023-02-06T02:31:09.151Z,103749.78
2023-02-06T02:34:51.998Z,103742.28
2023-02-06T02:37:55.653Z,103749.78
2023-02-06T02:40:53.991Z,103734.53
2023-02-06T02:43:49.064Z,103738.50
2023-02-06T02:46:41.837Z,103739.13
2023-02-06T02:49:37.876Z,103718.66
2023-02-06T02:52:27.141Z,103726.22
2023-02-06T02:55:19.428Z,103715.97
2023-02-06T02:58:13.448Z,103726.81
2023-02-06T03:01:09.322Z,103722.44
2023-02-06T03:04:02.711Z,103714.69
2023-02-06T03:07:07.758Z,103714.28
2023-02-06T03:10:12.075Z,103718.22
2023-02-06T03:13:09.294Z,103710.50
2023-02-06T03:16:07.485Z,103702.34
2023-02-06T03:19:03.602Z,103705.69
2023-02-06T03:21:53.173Z,103706.13
2023-02-06T03:24:43.856Z,103694.59
2023-02-06T03:27:33.898Z,103697.72
2023-02-06T03:30:26.050Z,103692.81
2023-02-06T03:33:18.467Z,103684.84
2023-02-06T03:36:11.191Z,103678.34
2023-02-06T03:39:00.624Z,103676.22
2023-02-06T03:41:52.732Z,103682.44
2023-02-06T03:44:48.280Z,103678.91
2023-02-06T03:47:39.860Z,103672.34
2023-02-06T03:50:29.640Z,103675.47
2023-02-06T03:53:22.350Z,103648.84
2023-02-06T03:56:20.520Z,103666.41
2023-02-06T03:59:11.409Z,103672.63
2023-02-06T04:02:03.790Z,103658.59
2023-02-06T04:04:53.780Z,103656.94
2023-02-06T04:07:43.213Z,103657.31
2023-02-06T04:10:32.413Z,103651.66
2023-02-06T04:13:21.670Z,103651.59
2023-02-06T04:16:12.219Z,103656.75
2023-02-06T04:19:01.463Z,103648.56
2023-02-06T04:21:50.777Z,103639.34
2023-02-06T04:24:41.495Z,103625.94
2023-02-06T04:27:30.750Z,103639.72
2023-02-06T04:30:20.334Z,103633.22
2023-02-06T04:33:10.990Z,103637.34
2023-02-06T04:36:00.141Z,103628.38
2023-02-06T04:38:49.391Z,103614.59
2023-02-06T04:41:38.633Z,103616.66
2023-02-06T04:44:27.856Z,103617.06
2023-02-06T04:47:17.102Z,103600.31
2023-02-06T04:50:10.541Z,103605.72
2023-02-06T04:53:00.206Z,103587.75
2023-02-06T04:55:49.503Z,103590.00
2023-02-06T04:58:39.506Z,103592.97
2023-02-06T05:01:28.763Z,103590.00
2023-02-06T05:04:18.000Z,103598.94
2023-02-06T05:07:08.603Z,103594.78
2023-02-06T05:09:57.778Z,103594.56
2023-02-06T05:12:50.945Z,103573.88
2023-02-06T05:15:40.561Z,103564.25
2023-02-06T05:18:29.818Z,103582.00
2023-02-06T05:21:19.122Z,103592.00
2023-02-06T05:24:09.773Z,103587.81
2023-02-06T05:26:59.087Z,103588.03
2023-02-06T05:29:48.265Z,103583.81
2023-02-06T05:32:37.512Z,103572.13
2023-02-06T05:35:26.679Z,103575.47
2023-02-06T05:38:16.009Z,103559.78
2023-02-06T05:41:07.066Z,103565.66
2023-02-06T05:43:56.201Z,103556.66
2023-02-06T05:46:45.445Z,103575.19
2023-02-06T05:49:34.654Z,103570.81
2023-02-06T05:52:23.924Z,103571.00
2023-02-06T05:55:17.027Z,103573.25
2023-02-06T05:58:07.401Z,103567.47
2023-02-06T06:00:56.969Z,103574.94
2023-02-06T06:03:46.266Z,103562.44
2023-02-06T06:06:35.818Z,103558.88
2023-02-06T06:09:25.680Z,103562.44
2023-02-06T06:12:14.868Z,103571.66
2023-02-06T06:15:06.159Z,103574.16
2023-02-06T06:17:55.386Z,103570.03
2023-02-06T06:20:44.619Z,103573.59
2023-02-06T06:23:33.823Z,103565.88
2023-02-06T06:26:23.026Z,103576.69
2023-02-06T06:29:12.235Z,103580.22
2023-02-06T06:32:02.806Z,103575.81
2023-02-06T06:34:51.988Z,103572.47
2023-02-06T06:37:41.181Z,103576.38
2023-02-06T06:40:31.569Z,103571.13
2023-02-06T06:43:20.772Z,103560.47
2023-02-06T06:46:10.298Z,103571.06
2023-02-06T06:49:01.490Z,103564.13
2023-02-06T06:51:50.824Z,103561.72
2023-02-06T06:54:40.199Z,103557.59
2023-02-06T06:57:32.890Z,103556.41
2023-02-06T07:00:22.681Z,103542.28
2023-02-06T07:03:12.889Z,103552.56
2023-02-06T07:06:03.758Z,103550.28
2023-02-06T07:08:53.055Z,103562.63
2023-02-06T07:11:43.036Z,103544.88
2023-02-06T07:14:32.329Z,103544.47
2023-02-06T07:17:21.502Z,103547.00
2023-02-06T07:20:12.313Z,103531.97
2023-02-06T07:23:02.952Z,103538.66
2023-02-06T07:25:52.245Z,103545.53
2023-02-06T07:28:42.337Z,103541.56
2023-02-06T07:31:31.617Z,103562.03
2023-02-06T07:34:20.862Z,103559.91
2023-02-06T07:37:10.078Z,103558.25
2023-02-06T07:40:00.782Z,103549.88
2023-02-06T07:42:49.981Z,103549.03
2023-02-06T07:45:46.611Z,103535.00
2023-02-06T07:48:35.899Z,103532.28
2023-02-06T07:51:25.179Z,103530.59
2023-02-06T07:54:14.784Z,103527.03
2023-02-06T07:57:05.513Z,103543.94
2023-02-06T07:59:54.811Z,103544.78
2023-02-06T08:02:44.400Z,103549.16
2023-02-06T08:05:34.201Z,103542.22
2023-02-06T08:08:23.448Z,103537.44
2023-02-06T08:11:15.708Z,103546.63
2023-02-06T08:14:06.272Z,103545.53
2023-02-06T08:16:55.649Z,103548.47
2023-02-06T08:19:44.939Z,103543.63
2023-02-06T08:22:34.081Z,103548.00
2023-02-06T08:25:23.504Z,103553.25
2023-02-06T08:28:15.116Z,103541.75
2023-02-06T08:31:12.009Z,103537.19
2023-02-06T08:34:01.443Z,103549.88
2023-02-06T08:36:50.749Z,103550.06
2023-02-06T08:39:39.963Z,103553.19
2023-02-06T08:42:29.098Z,103558.81
2023-02-06T08:45:18.519Z,103552.94
2023-02-06T08:48:09.309Z,103549.16
2023-02-06T08:51:05.494Z,103548.28
2023-02-06T08:53:57.652Z,103545.75
2023-02-06T08:56:46.972Z,103538.66
2023-02-06T08:59:36.281Z,103529.44
2023-02-06T09:02:25.481Z,103536.88
2023-02-06T09:05:16.581Z,103544.38
2023-02-06T09:08:06.242Z,103533.03
2023-02-06T09:10:55.423Z,103538.38
2023-02-06T09:13:49.139Z,103526.44
2023-02-06T09:16:38.850Z,103535.09
2023-02-06T09:19:28.513Z,103529.44
2023-02-06T09:22:19.216Z,103543.78
2023-02-06T09:25:09.474Z,103540.16
2023-02-06T09:27:58.825Z,103533.84
2023-02-06T09:30:48.732Z,103538.38
2023-02-06T09:33:40.174Z,103527.50
2023-02-06T09:36:30.406Z,103527.88
2023-02-06T09:39:21.263Z,103541.19
2023-02-06T09:42:20.724Z,103541.19
2023-02-06T09:45:15.045Z,103538.25
2023-02-06T09:48:25.871Z,103541.13
2023-02-06T09:51:20.631Z,103526.06
2023-02-06T09:54:22.169Z,103503.34
2023-02-06T09:57:21.494Z,103534.25
2023-02-06T10:00:27.792Z,103511.16
2023-02-06T10:03:41.090Z,103518.06
2023-02-06T10:06:38.001Z,103520.25
2023-02-06T10:09:38.412Z,103516.44
2023-02-06T10:12:40.182Z,103517.22
2023-02-06T10:15:36.644Z,103513.88
2023-02-06T10:18:33.724Z,103518.41
2023-02-06T10:21:32.821Z,103503.34
2023-02-06T10:24:33.630Z,103518.72
2023-02-06T10:27:22.904Z,103514.22
2023-02-06T10:30:20.919Z,103521.88
2023-02-06T10:33:25.582Z,103506.75
2023-02-06T10:36:40.694Z,103504.53
2023-02-06T10:40:03.835Z,103491.97
2023-02-06T10:43:02.208Z,103482.63
2023-02-06T10:46:02.381Z,103483.44
2023-02-06T10:49:02.269Z,103487.78
2023-02-06T10:51:56.946Z,103494.69
2023-02-06T10:54:53.407Z,103489.84
2023-02-06T10:57:44.300Z,103493.69
2023-02-06T11:00:33.968Z,103470.97
2023-02-06T11:03:31.926Z,103485.38
2023-02-06T11:06:23.463Z,103488.38
2023-02-06T11:09:12.874Z,103474.53
2023-02-06T11:12:03.195Z,103482.63
2023-02-06T11:14:54.871Z,103471.06
2023-02-06T11:17:46.170Z,103472.47
2023-02-06T11:20:39.839Z,103471.94
2023-02-06T11:23:34.727Z,103462.34
2023-02-06T11:26:24.184Z,103468.97
2023-02-06T11:29:19.540Z,103461.69
2023-02-06T11:32:25.821Z,103468.69
2023-02-06T11:35:29.492Z,103462.13
2023-02-06T11:38:23.183Z,103452.94
2023-02-06T11:41:20.009Z,103460.94
2023-02-06T11:44:15.716Z,103456.47
2023-02-06T11:47:32.331Z,103463.19
2023-02-06T11:50:28.689Z,103458.31
2023-02-06T11:53:20.279Z,103444.19
2023-02-06T11:56:20.814Z,103445.59
2023-02-06T11:59:23.190Z,103438.53
2023-02-06T12:02:30.472Z,103431.50
2023-02-06T12:05:22.105Z,103414.31
2023-02-06T12:08:17.605Z,103420.06
2023-02-06T12:11:14.854Z,103416.03
2023-02-06T12:14:10.967Z,103424.72
2023-02-06T12:17:03.458Z,103417.84
2023-02-06T12:20:03.045Z,103416.19
2023-02-06T12:22:56.315Z,103417.94
2023-02-06T12:25:50.548Z,103423.00
2023-02-06T12:28:54.107Z,103413.84
2023-02-06T12:31:53.061Z,103411.09
2023-02-06T12:34:54.943Z,103407.19
2023-02-06T12:37:52.366Z,103405.84
2023-02-06T12:40:51.040Z,103416.56
2023-02-06T12:43:44.517Z,103404.84
2023-02-06T12:46:34.149Z,103407.00
2023-02-06T12:49:29.578Z,103385.25
2023-02-06T12:52:26.066Z,103386.63
2023-02-06T12:55:23.926Z,103380.09
2023-02-06T12:58:29.303Z,103373.50
2023-02-06T13:01:34.672Z,103371.38
2023-02-06T13:04:27.109Z,103369.72
2023-02-06T13:07:20.632Z,103355.16
2023-02-06T13:10:18.072Z,103360.81
2023-02-06T13:13:07.925Z,103354.44
2023-02-06T13:16:00.586Z,103341.41
2023-02-06T13:18:55.316Z,103329.31
2023-02-06T13:21:53.279Z,103337.28
2023-02-06T13:24:44.631Z,103324.03
2023-02-06T13:27:40.481Z,103330.63
2023-02-06T13:30:50.686Z,103336.88
2023-02-06T13:33:43.061Z,103327.09
2023-02-06T13:36:51.683Z,103331.34
2023-02-06T13:39:40.897Z,103324.75
2023-02-06T13:42:41.387Z,103327.75
2023-02-06T13:45:36.580Z,103312.03
2023-02-06T13:49:07.196Z,103323.56
2023-02-06T13:52:05.776Z,103319.88
2023-02-06T13:55:22.631Z,103306.75
2023-02-06T13:58:35.832Z,103301.53
2023-02-06T14:01:31.253Z,103308.88
2023-02-06T14:04:25.178Z,103299.25
2023-02-06T14:07:51.578Z,103295.19
2023-02-06T14:11:07.629Z,103297.44
2023-02-06T14:14:24.827Z,103302.97
2023-02-06T14:17:39.746Z,103293.44
2023-02-06T14:20:45.287Z,103299.56
2023-02-06T14:24:08.130Z,103303.09
2023-02-06T14:27:15.313Z,103302.59
2023-02-06T14:30:18.041Z,103294.91
2023-02-06T14:33:25.766Z,103294.78
2023-02-06T14:36:34.985Z,103289.47
2023-02-06T14:39:48.699Z,103290.22
2023-02-06T14:42:40.975Z,103285.94
2023-02-06T14:45:41.584Z,103279.13
2023-02-06T14:48:40.124Z,103271.81
2023-02-06T14:51:34.529Z,103279.28
2023-02-06T14:54:33.731Z,103277.09
2023-02-06T14:57:28.944Z,103282.63
2023-02-06T15:00:21.936Z,103283.41
2023-02-06T15:03:18.350Z,103284.22
2023-02-06T15:06:11.285Z,103284.03
2023-02-06T15:09:01.206Z,103273.19
2023-02-06T15:11:53.435Z,103281.00
2023-02-06T15:14:53.184Z,103273.72
2023-02-06T15:17:42.855Z,103280.63
2023-02-06T15:20:37.863Z,103284.84
2023-02-06T15:23:42.671Z,103282.34
2023-02-06T15:26:40.792Z,103279.22
2023-02-06T15:29:30.074Z,103267.38
2023-02-06T15:32:30.122Z,103270.31
2023-02-06T15:35:24.037Z,103262.28
2023-02-06T15:38:16.948Z,103256.19
2023-02-06T15:41:09.711Z,103255.81
2023-02-06T15:44:03.690Z,103260.91
2023-02-06T15:46:54.193Z,103263.84
2023-02-06T15:49:47.741Z,103264.44
2023-02-06T15:52:43.051Z,103254.53
2023-02-06T15:55:36.354Z,103253.78
2023-02-06T15:58:26.078Z,103255.00
2023-02-06T16:01:20.439Z,103250.38
2023-02-06T16:04:14.848Z,103258.09
2023-02-06T16:07:13.691Z,103244.59
2023-02-06T16:10:15.620Z,103248.66
2023-02-06T16:13:12.221Z,103248.41
2023-02-06T16:16:20.948Z,103247.84
2023-02-06T16:19:41.920Z,103253.97
2023-02-06T16:22:35.232Z,103239.53
2023-02-06T16:25:30.730Z,103261.16
2023-02-06T16:28:23.182Z,103246.44
2023-02-06T16:31:15.967Z,103238.56
2023-02-06T16:34:22.333Z,103252.63
2023-02-06T16:37:15.503Z,103238.44
2023-02-06T16:40:07.419Z,103242.41
2023-02-06T16:42:56.745Z,103239.38
2023-02-06T16:45:46.746Z,103253.63
2023-02-06T16:48:35.943Z,103254.06
2023-02-06T16:51:28.399Z,103256.88
2023-02-06T16:54:23.763Z,103252.59
2023-02-06T16:57:27.298Z,103258.44
2023-02-06T17:00:23.328Z,103260.38
2023-02-06T17:03:16.266Z,103264.28
2023-02-06T17:06:07.353Z,103256.19
2023-02-06T17:09:03.514Z,103265.00
2023-02-06T17:11:53.877Z,103274.47
2023-02-06T17:14:44.997Z,103276.78
2023-02-06T17:17:34.291Z,103273.41
2023-02-06T17:20:31.611Z,103261.03
2023-02-06T17:23:21.434Z,103268.78
2023-02-06T17:26:14.643Z,103252.25
2023-02-06T17:29:03.968Z,103251.91
2023-02-06T17:31:54.635Z,103250.66
2023-02-06T17:34:43.920Z,103260.03
2023-02-06T17:37:33.107Z,103257.84
2023-02-06T17:40:26.814Z,103264.66
2023-02-06T17:43:16.100Z,103260.63
2023-02-06T17:46:05.676Z,103266.34
2023-02-06T17:48:56.334Z,103258.06
2023-02-06T17:51:46.814Z,103261.63
2023-02-06T17:54:36.254Z,103250.00
2023-02-06T17:57:26.256Z,103263.91
2023-02-06T18:00:19.365Z,103262.41
2023-02-06T18:03:09.734Z,103267.13
2023-02-06T18:06:02.104Z,103278.06
2023-02-06T18:08:52.186Z,103279.00
2023-02-06T18:11:41.803Z,103298.13
2023-02-06T18:14:31.077Z,103292.94
2023-02-06T18:17:20.469Z,103281.06
2023-02-06T18:20:12.698Z,103272.25
2023-02-06T18:23:03.464Z,103274.97
2023-02-06T18:25:53.006Z,103277.72
2023-02-06T18:28:42.379Z,103273.81
2023-02-06T18:31:35.695Z,103277.00
2023-02-06T18:34:24.996Z,103274.53
2023-02-06T18:37:14.323Z,103261.75
2023-02-06T18:40:05.569Z,103268.41
2023-02-06T18:42:55.064Z,103246.56
2023-02-06T18:45:44.696Z,103252.53
2023-02-06T18:48:33.866Z,103257.50
2023-02-06T18:51:23.819Z,103256.81
2023-02-06T18:54:13.100Z,103261.06
2023-02-06T18:57:04.350Z,103255.97
2023-02-06T18:59:53.679Z,103251.59
2023-02-06T19:02:43.254Z,103250.41
2023-02-06T19:05:37.510Z,103231.91
2023-02-06T19:08:26.854Z,103251.00
2023-02-06T19:11:16.335Z,103247.44
2023-02-06T19:14:08.597Z,103239.84
2023-02-06T19:16:58.569Z,103230.00
2023-02-06T19:19:47.826Z,103237.84
2023-02-06T19:22:38.239Z,103238.69
2023-02-06T19:25:27.543Z,103243.41
2023-02-06T19:28:16.905Z,103247.09
2023-02-06T19:31:09.483Z,103233.44
2023-02-06T19:34:02.346Z,103232.63
2023-02-06T19:36:51.589Z,103224.06
2023-02-06T19:39:43.280Z,103225.97
2023-02-06T19:42:32.477Z,103208.88
2023-02-06T19:45:21.660Z,103207.38
2023-02-06T19:48:13.944Z,103210.44
2023-02-06T19:51:08.549Z,103206.78
2023-02-06T19:53:59.758Z,103209.03
2023-02-06T19:56:50.229Z,103207.25
2023-02-06T19:59:39.375Z,103194.44
2023-02-06T20:02:28.641Z,103196.81
2023-02-06T20:05:25.967Z,103198.47
2023-02-06T20:08:15.232Z,103198.72
2023-02-06T20:11:07.263Z,103195.25
2023-02-06T20:13:58.345Z,103193.94
2023-02-06T20:16:49.402Z,103189.44
2023-02-06T20:19:38.710Z,103182.69
2023-02-06T20:22:30.081Z,103189.22
2023-02-06T20:25:20.949Z,103190.75
2023-02-06T20:28:10.636Z,103176.97
2023-02-06T20:31:00.013Z,103177.69
2023-02-06T20:33:50.628Z,103175.91
2023-02-06T20:36:41.913Z,103179.13
2023-02-06T20:39:32.588Z,103176.88
2023-02-06T20:42:24.721Z,103193.72
2023-02-06T20:45:14.171Z,103191.44
2023-02-06T20:48:03.360Z,103189.69
2023-02-06T20:50:58.826Z,103192.53
2023-02-06T20:53:48.115Z,103192.16
2023-02-06T20:56:39.577Z,103176.06
2023-02-06T20:59:29.302Z,103188.72
2023-02-06T21:02:18.705Z,103186.47
2023-02-06T21:05:08.874Z,103190.16
2023-02-06T21:07:58.973Z,103196.31
2023-02-06T21:10:50.718Z,103190.28
2023-02-06T21:13:42.666Z,103194.19
2023-02-06T21:16:33.272Z,103171.31
2023-02-06T21:19:22.618Z,103197.28
2023-02-06T21:22:11.818Z,103192.78
2023-02-06T21:25:01.061Z,103198.09
2023-02-06T21:27:50.411Z,103207.34
2023-02-06T21:30:41.457Z,103207.84
2023-02-06T21:33:30.954Z,103207.69
2023-02-06T21:36:21.468Z,103193.13
2023-02-06T21:39:12.682Z,103200.34
2023-02-06T21:42:01.900Z,103196.78
2023-02-06T21:44:51.122Z,103201.19
2023-02-06T21:47:41.691Z,103196.44
2023-02-06T21:50:31.241Z,103197.63
2023-02-06T21:53:20.612Z,103193.13
2023-02-06T21:56:13.640Z,103181.72
2023-02-06T21:59:02.790Z,103196.91
2023-02-06T22:01:52.155Z,103187.31
2023-02-06T22:04:42.873Z,103194.41
2023-02-06T22:07:32.096Z,103192.66
2023-02-06T22:10:21.499Z,103194.31
2023-02-06T22:13:10.829Z,103181.38
2023-02-06T22:16:00.140Z,103190.41
2023-02-06T22:18:49.700Z,103190.88
2023-02-06T22:21:40.733Z,103182.09
2023-02-06T22:24:30.175Z,103188.72
2023-02-06T22:27:20.369Z,103192.41
2023-02-06T22:30:11.756Z,103183.50
2023-02-06T22:33:01.897Z,103189.09
2023-02-06T22:35:51.182Z,103191.25
2023-02-06T22:38:44.177Z,103180.44
2023-02-06T22:41:33.483Z,103184.44
2023-02-06T22:44:23.196Z,103188.38
2023-02-06T22:47:12.408Z,103182.09
2023-02-06T22:50:01.625Z,103175.94
2023-02-06T22:53:08.195Z,103196.44
2023-02-06T22:56:16.605Z,103200.22
2023-02-06T22:59:10.349Z,103190.97
2023-02-06T23:02:00.421Z,103190.75
2023-02-06T23:04:49.724Z,103197.16
2023-02-06T23:07:38.966Z,103196.22
2023-02-06T23:10:28.332Z,103199.66
2023-02-06T23:13:18.967Z,103204.63
2023-02-06T23:16:09.650Z,103187.44
2023-02-06T23:18:59.057Z,103192.44
2023-02-06T23:21:51.219Z,103186.63
2023-02-06T23:24:40.388Z,103189.09
2023-02-06T23:27:30.363Z,103194.19
2023-02-06T23:30:21.392Z,103189.69
2023-02-06T23:33:10.820Z,103190.03
2023-02-06T23:36:05.581Z,103185.16
2023-02-06T23:38:55.455Z,103180.19
2023-02-06T23:41:44.646Z,103180.25
2023-02-06T23:44:33.836Z,103185.38
2023-02-06T23:47:24.734Z,103187.03
2023-02-06T23:50:14.180Z,103171.41
2023-02-06T23:53:03.430Z,103173.31
2023-02-06T23:55:52.672Z,103186.78
2023-02-06T23:58:42.652Z,103171.16
